sensor_id;sensor_type;location;lat;lon;timestamp;P1;durP1;ratioP1;P2;durP2;ratioP2
4355;SDS011;64374;51.482;7.408;2023-07-20T00:01:00;11.73;;;7.40;;
4355;SDS011;64374;51.482;7.408;2023-07-20T00:03:29;10.30;;;6.90;;
4355;SDS011;64374;51.482;7.408;2023-07-20T00:05:57;12.63;;;8.83;;
4355;SDS011;64374;51.482;7.408;2023-07-20T00:08:27;13.27;;;7.57;;
4355;SDS011;64374;51.482;7.408;2023-07-20T00:11:20;16.07;;;6.97;;
4355;SDS011;64374;51.482;7.408;2023-07-20T00:13:48;8.97;;;6.60;;
4355;SDS011;64374;51.482;7.408;2023-07-20T00:16:16;13.00;;;7.67;;
4355;SDS011;64374;51.482;7.408;2023-07-20T00:18:44;12.60;;;6.90;;
4355;SDS011;64374;51.482;7.408;2023-07-20T00:21:13;9.13;;;7.17;;
4355;SDS011;64374;51.482;7.408;2023-07-20T00:23:43;11.63;;;7.83;;
4355;SDS011;64374;51.482;7.408;2023-07-20T00:26:11;11.17;;;8.10;;
4355;SDS011;64374;51.482;7.408;2023-07-20T00:28:40;11.90;;;8.00;;
4355;SDS011;64374;51.482;7.408;2023-07-20T00:31:08;11.90;;;7.07;;
4355;SDS011;64374;51.482;7.408;2023-07-20T00:33:36;10.40;;;7.50;;
4355;SDS011;64374;51.482;7.408;2023-07-20T00:36:05;13.70;;;8.07;;
4355;SDS011;64374;51.482;7.408;2023-07-20T00:38:34;13.17;;;7.90;;
4355;SDS011;64374;51.482;7.408;2023-07-20T00:41:04;9.07;;;6.40;;
4355;SDS011;64374;51.482;7.408;2023-07-20T00:43:34;11.70;;;7.60;;
4355;SDS011;64374;51.482;7.408;2023-07-20T00:46:02;13.13;;;6.67;;
4355;SDS011;64374;51.482;7.408;2023-07-20T00:48:32;14.00;;;7.80;;
4355;SDS011;64374;51.482;7.408;2023-07-20T00:51:01;15.37;;;8.60;;
4355;SDS011;64374;51.482;7.408;2023-07-20T00:53:32;8.47;;;6.23;;
4355;SDS011;64374;51.482;7.408;2023-07-20T00:56:01;13.60;;;7.47;;
4355;SDS011;64374;51.482;7.408;2023-07-20T00:58:31;10.40;;;7.10;;
4355;SDS011;64374;51.482;7.408;2023-07-20T01:01:00;15.13;;;7.90;;
4355;SDS011;64374;51.482;7.408;2023-07-20T01:03:29;18.47;;;7.57;;
4355;SDS011;64374;51.482;7.408;2023-07-20T01:06:01;7.60;;;6.80;;
4355;SDS011;64374;51.482;7.408;2023-07-20T01:08:40;15.23;;;7.43;;
4355;SDS011;64374;51.482;7.408;2023-07-20T01:11:16;12.30;;;7.33;;
4355;SDS011;64374;51.482;7.408;2023-07-20T01:13:57;14.47;;;6.80;;
4355;SDS011;64374;51.482;7.408;2023-07-20T01:16:26;21.47;;;7.57;;
4355;SDS011;64374;51.482;7.408;2023-07-20T01:18:54;13.87;;;6.73;;
4355;SDS011;64374;51.482;7.408;2023-07-20T01:21:26;9.70;;;6.43;;
4355;SDS011;64374;51.482;7.408;2023-07-20T01:27:19;11.30;;;6.50;;
4355;SDS011;64374;51.482;7.408;2023-07-20T01:32:55;12.30;;;6.00;;
4355;SDS011;64374;51.482;7.408;2023-07-20T01:35:26;10.80;;;6.73;;
4355;SDS011;64374;51.482;7.408;2023-07-20T01:37:57;11.33;;;7.30;;
4355;SDS011;64374;51.482;7.408;2023-07-20T01:40:27;12.00;;;7.27;;
4355;SDS011;64374;51.482;7.408;2023-07-20T01:42:55;16.90;;;8.17;;
4355;SDS011;64374;51.482;7.408;2023-07-20T01:45:24;12.00;;;6.43;;
4355;SDS011;64374;51.482;7.408;2023-07-20T01:47:57;8.57;;;6.20;;
4355;SDS011;64374;51.482;7.408;2023-07-20T01:50:25;18.13;;;7.77;;
4355;SDS011;64374;51.482;7.408;2023-07-20T01:52:55;11.53;;;7.60;;
4355;SDS011;64374;51.482;7.408;2023-07-20T01:55:24;9.13;;;6.80;;
4355;SDS011;64374;51.482;7.408;2023-07-20T01:57:55;22.27;;;7.87;;
4355;SDS011;64374;51.482;7.408;2023-07-20T02:00:24;11.23;;;6.63;;
4355;SDS011;64374;51.482;7.408;2023-07-20T02:02:52;13.30;;;7.87;;
4355;SDS011;64374;51.482;7.408;2023-07-20T02:05:24;16.17;;;7.77;;
4355;SDS011;64374;51.482;7.408;2023-07-20T02:07:53;12.47;;;7.37;;
4355;SDS011;64374;51.482;7.408;2023-07-20T02:10:22;12.43;;;7.40;;
4355;SDS011;64374;51.482;7.408;2023-07-20T02:12:51;10.13;;;6.70;;
4355;SDS011;64374;51.482;7.408;2023-07-20T02:15:19;18.17;;;7.57;;
4355;SDS011;64374;51.482;7.408;2023-07-20T02:17:48;14.27;;;7.70;;
4355;SDS011;64374;51.482;7.408;2023-07-20T02:20:16;12.63;;;8.20;;
4355;SDS011;64374;51.482;7.408;2023-07-20T02:22:49;23.70;;;9.23;;
4355;SDS011;64374;51.482;7.408;2023-07-20T02:25:18;12.47;;;7.97;;
4355;SDS011;64374;51.482;7.408;2023-07-20T02:27:47;20.37;;;8.90;;
4355;SDS011;64374;51.482;7.408;2023-07-20T02:30:16;10.00;;;7.47;;
4355;SDS011;64374;51.482;7.408;2023-07-20T02:32:44;17.23;;;8.77;;
4355;SDS011;64374;51.482;7.408;2023-07-20T02:35:16;10.37;;;7.87;;
4355;SDS011;64374;51.482;7.408;2023-07-20T02:37:45;13.93;;;8.50;;
4355;SDS011;64374;51.482;7.408;2023-07-20T02:40:15;14.47;;;8.30;;
4355;SDS011;64374;51.482;7.408;2023-07-20T02:42:44;14.63;;;8.60;;
4355;SDS011;64374;51.482;7.408;2023-07-20T02:45:12;11.83;;;7.90;;
4355;SDS011;64374;51.482;7.408;2023-07-20T02:47:44;12.40;;;8.37;;
4355;SDS011;64374;51.482;7.408;2023-07-20T02:50:12;23.00;;;9.00;;
4355;SDS011;64374;51.482;7.408;2023-07-20T02:52:41;14.53;;;7.43;;
4355;SDS011;64374;51.482;7.408;2023-07-20T02:55:09;12.77;;;8.50;;
4355;SDS011;64374;51.482;7.408;2023-07-20T02:57:39;11.20;;;8.83;;
4355;SDS011;64374;51.482;7.408;2023-07-20T03:00:09;13.83;;;8.93;;
4355;SDS011;64374;51.482;7.408;2023-07-20T03:02:41;8.90;;;8.10;;
4355;SDS011;64374;51.482;7.408;2023-07-20T03:05:10;11.93;;;8.30;;
4355;SDS011;64374;51.482;7.408;2023-07-20T03:07:38;10.13;;;7.27;;
4355;SDS011;64374;51.482;7.408;2023-07-20T03:10:10;10.03;;;8.10;;
4355;SDS011;64374;51.482;7.408;2023-07-20T03:12:40;16.00;;;8.60;;
4355;SDS011;64374;51.482;7.408;2023-07-20T03:15:09;12.43;;;7.93;;
4355;SDS011;64374;51.482;7.408;2023-07-20T03:17:38;15.47;;;9.60;;
4355;SDS011;64374;51.482;7.408;2023-07-20T03:20:07;13.10;;;9.70;;
4355;SDS011;64374;51.482;7.408;2023-07-20T03:22:37;14.17;;;7.77;;
4355;SDS011;64374;51.482;7.408;2023-07-20T03:25:08;12.77;;;8.67;;
4355;SDS011;64374;51.482;7.408;2023-07-20T03:27:36;11.67;;;7.30;;
4355;SDS011;64374;51.482;7.408;2023-07-20T03:30:07;13.90;;;8.60;;
4355;SDS011;64374;51.482;7.408;2023-07-20T03:32:37;11.90;;;8.40;;
4355;SDS011;64374;51.482;7.408;2023-07-20T03:35:05;10.60;;;8.07;;
4355;SDS011;64374;51.482;7.408;2023-07-20T03:37:36;9.23;;;7.50;;
4355;SDS011;64374;51.482;7.408;2023-07-20T03:40:05;9.27;;;7.67;;
4355;SDS011;64374;51.482;7.408;2023-07-20T03:42:34;11.10;;;8.27;;
4355;SDS011;64374;51.482;7.408;2023-07-20T03:45:02;11.07;;;7.87;;
4355;SDS011;64374;51.482;7.408;2023-07-20T03:47:34;13.27;;;9.07;;
4355;SDS011;64374;51.482;7.408;2023-07-20T03:50:03;13.30;;;9.70;;
4355;SDS011;64374;51.482;7.408;2023-07-20T03:52:32;11.23;;;8.50;;
4355;SDS011;64374;51.482;7.408;2023-07-20T03:55:01;12.57;;;9.50;;
4355;SDS011;64374;51.482;7.408;2023-07-20T03:57:29;12.47;;;10.00;;
4355;SDS011;64374;51.482;7.408;2023-07-20T04:00:00;12.43;;;9.83;;
4355;SDS011;64374;51.482;7.408;2023-07-20T04:02:40;11.97;;;8.97;;
4355;SDS011;64374;51.482;7.408;2023-07-20T04:05:10;12.47;;;9.40;;
4355;SDS011;64374;51.482;7.408;2023-07-20T04:07:38;13.03;;;9.47;;
4355;SDS011;64374;51.482;7.408;2023-07-20T04:10:07;12.10;;;9.20;;
4355;SDS011;64374;51.482;7.408;2023-07-20T04:12:36;13.30;;;9.10;;
4355;SDS011;64374;51.482;7.408;2023-07-20T04:15:04;9.30;;;8.10;;
4355;SDS011;64374;51.482;7.408;2023-07-20T04:17:33;14.80;;;8.90;;
4355;SDS011;64374;51.482;7.408;2023-07-20T04:20:04;11.50;;;9.37;;
4355;SDS011;64374;51.482;7.408;2023-07-20T04:22:33;13.23;;;9.50;;
4355;SDS011;64374;51.482;7.408;2023-07-20T04:25:10;16.80;;;11.30;;
4355;SDS011;64374;51.482;7.408;2023-07-20T04:27:38;16.10;;;11.67;;
4355;SDS011;64374;51.482;7.408;2023-07-20T04:30:07;13.87;;;11.30;;
4355;SDS011;64374;51.482;7.408;2023-07-20T04:32:37;19.00;;;11.27;;
4355;SDS011;64374;51.482;7.408;2023-07-20T04:35:16;16.97;;;11.10;;
4355;SDS011;64374;51.482;7.408;2023-07-20T04:37:48;12.20;;;10.00;;
4355;SDS011;64374;51.482;7.408;2023-07-20T04:40:18;13.60;;;11.43;;
4355;SDS011;64374;51.482;7.408;2023-07-20T04:42:47;15.17;;;11.67;;
4355;SDS011;64374;51.482;7.408;2023-07-20T04:45:18;15.30;;;12.80;;
4355;SDS011;64374;51.482;7.408;2023-07-20T04:47:46;14.93;;;11.17;;
4355;SDS011;64374;51.482;7.408;2023-07-20T04:50:20;13.93;;;12.40;;
4355;SDS011;64374;51.482;7.408;2023-07-20T04:52:49;16.90;;;12.37;;
4355;SDS011;64374;51.482;7.408;2023-07-20T04:55:19;15.40;;;12.80;;
4355;SDS011;64374;51.482;7.408;2023-07-20T04:57:47;17.23;;;14.67;;
4355;SDS011;64374;51.482;7.408;2023-07-20T05:00:16;17.00;;;13.83;;
4355;SDS011;64374;51.482;7.408;2023-07-20T05:02:46;15.60;;;13.30;;
4355;SDS011;64374;51.482;7.408;2023-07-20T05:05:15;15.70;;;13.57;;
4355;SDS011;64374;51.482;7.408;2023-07-20T05:07:45;20.33;;;16.77;;
4355;SDS011;64374;51.482;7.408;2023-07-20T05:10:15;20.73;;;15.47;;
4355;SDS011;64374;51.482;7.408;2023-07-20T05:12:44;21.67;;;15.67;;
4355;SDS011;64374;51.482;7.408;2023-07-20T05:15:14;20.23;;;14.93;;
4355;SDS011;64374;51.482;7.408;2023-07-20T05:17:43;18.80;;;14.57;;
4355;SDS011;64374;51.482;7.408;2023-07-20T05:20:11;17.87;;;14.33;;
4355;SDS011;64374;51.482;7.408;2023-07-20T05:22:40;14.20;;;11.83;;
4355;SDS011;64374;51.482;7.408;2023-07-20T05:25:11;12.17;;;10.23;;
4355;SDS011;64374;51.482;7.408;2023-07-20T05:27:40;12.30;;;10.70;;
4355;SDS011;64374;51.482;7.408;2023-07-20T05:30:09;14.97;;;12.13;;
4355;SDS011;64374;51.482;7.408;2023-07-20T05:32:40;13.50;;;10.60;;
4355;SDS011;64374;51.482;7.408;2023-07-20T05:35:08;12.27;;;10.03;;
4355;SDS011;64374;51.482;7.408;2023-07-20T05:37:41;12.50;;;10.53;;
4355;SDS011;64374;51.482;7.408;2023-07-20T05:40:09;17.57;;;9.87;;
4355;SDS011;64374;51.482;7.408;2023-07-20T05:42:40;10.17;;;8.77;;
4355;SDS011;64374;51.482;7.408;2023-07-20T05:45:11;10.77;;;8.60;;
4355;SDS011;64374;51.482;7.408;2023-07-20T05:47:39;13.03;;;7.90;;
4355;SDS011;64374;51.482;7.408;2023-07-20T05:50:09;13.43;;;9.03;;
4355;SDS011;64374;51.482;7.408;2023-07-20T05:52:37;9.27;;;8.27;;
4355;SDS011;64374;51.482;7.408;2023-07-20T05:55:09;12.83;;;8.90;;
4355;SDS011;64374;51.482;7.408;2023-07-20T05:57:40;9.77;;;8.87;;
4355;SDS011;64374;51.482;7.408;2023-07-20T06:00:11;8.07;;;7.37;;
4355;SDS011;64374;51.482;7.408;2023-07-20T06:02:43;9.83;;;6.97;;
4355;SDS011;64374;51.482;7.408;2023-07-20T06:05:12;8.43;;;6.73;;
4355;SDS011;64374;51.482;7.408;2023-07-20T06:07:41;9.17;;;7.27;;
4355;SDS011;64374;51.482;7.408;2023-07-20T06:10:10;6.50;;;5.90;;
4355;SDS011;64374;51.482;7.408;2023-07-20T06:12:39;10.83;;;7.10;;
4355;SDS011;64374;51.482;7.408;2023-07-20T06:15:23;10.33;;;6.23;;
4355;SDS011;64374;51.482;7.408;2023-07-20T06:17:53;6.90;;;6.30;;
4355;SDS011;64374;51.482;7.408;2023-07-20T06:20:25;9.17;;;6.20;;
4355;SDS011;64374;51.482;7.408;2023-07-20T06:22:54;7.20;;;6.60;;
4355;SDS011;64374;51.482;7.408;2023-07-20T06:25:22;6.83;;;6.23;;
4355;SDS011;64374;51.482;7.408;2023-07-20T06:27:52;9.07;;;6.60;;
4355;SDS011;64374;51.482;7.408;2023-07-20T06:30:23;7.53;;;6.73;;
4355;SDS011;64374;51.482;7.408;2023-07-20T06:32:52;7.23;;;6.27;;
4355;SDS011;64374;51.482;7.408;2023-07-20T06:35:21;8.00;;;6.67;;
4355;SDS011;64374;51.482;7.408;2023-07-20T06:37:49;8.77;;;6.57;;
4355;SDS011;64374;51.482;7.408;2023-07-20T06:40:17;6.50;;;5.90;;
4355;SDS011;64374;51.482;7.408;2023-07-20T06:42:48;6.13;;;5.53;;
4355;SDS011;64374;51.482;7.408;2023-07-20T06:45:22;5.63;;;5.13;;
4355;SDS011;64374;51.482;7.408;2023-07-20T06:47:52;6.77;;;6.10;;
4355;SDS011;64374;51.482;7.408;2023-07-20T06:50:20;6.70;;;4.90;;
4355;SDS011;64374;51.482;7.408;2023-07-20T06:52:52;6.10;;;5.27;;
4355;SDS011;64374;51.482;7.408;2023-07-20T06:55:24;5.77;;;5.27;;
4355;SDS011;64374;51.482;7.408;2023-07-20T06:57:57;4.40;;;4.00;;
4355;SDS011;64374;51.482;7.408;2023-07-20T07:00:26;5.43;;;4.40;;
4355;SDS011;64374;51.482;7.408;2023-07-20T07:02:55;5.00;;;4.50;;
4355;SDS011;64374;51.482;7.408;2023-07-20T07:05:26;4.87;;;4.30;;
4355;SDS011;64374;51.482;7.408;2023-07-20T07:08:03;3.93;;;3.63;;
4355;SDS011;64374;51.482;7.408;2023-07-20T07:10:32;3.63;;;3.27;;
4355;SDS011;64374;51.482;7.408;2023-07-20T07:13:00;4.10;;;3.30;;
4355;SDS011;64374;51.482;7.408;2023-07-20T07:15:35;4.03;;;3.37;;
4355;SDS011;64374;51.482;7.408;2023-07-20T07:18:04;4.50;;;2.90;;
4355;SDS011;64374;51.482;7.408;2023-07-20T07:20:33;3.33;;;3.03;;
4355;SDS011;64374;51.482;7.408;2023-07-20T07:23:01;3.93;;;2.93;;
4355;SDS011;64374;51.482;7.408;2023-07-20T07:25:29;6.20;;;3.30;;
4355;SDS011;64374;51.482;7.408;2023-07-20T07:27:59;3.50;;;3.20;;
4355;SDS011;64374;51.482;7.408;2023-07-20T07:30:28;3.50;;;3.07;;
4355;SDS011;64374;51.482;7.408;2023-07-20T07:32:59;3.70;;;3.23;;
4355;SDS011;64374;51.482;7.408;2023-07-20T07:35:29;3.53;;;3.23;;
4355;SDS011;64374;51.482;7.408;2023-07-20T07:37:57;3.67;;;3.00;;
4355;SDS011;64374;51.482;7.408;2023-07-20T07:40:44;4.23;;;2.93;;
4355;SDS011;64374;51.482;7.408;2023-07-20T07:43:13;2.80;;;2.60;;
4355;SDS011;64374;51.482;7.408;2023-07-20T07:45:41;5.40;;;3.20;;
4355;SDS011;64374;51.482;7.408;2023-07-20T07:48:11;3.60;;;3.30;;
4355;SDS011;64374;51.482;7.408;2023-07-20T07:50:43;3.30;;;2.67;;
4355;SDS011;64374;51.482;7.408;2023-07-20T07:53:11;4.33;;;2.93;;
4355;SDS011;64374;51.482;7.408;2023-07-20T07:55:40;2.20;;;2.10;;
4355;SDS011;64374;51.482;7.408;2023-07-20T07:58:09;3.00;;;2.70;;
4355;SDS011;64374;51.482;7.408;2023-07-20T08:00:37;2.40;;;2.20;;
4355;SDS011;64374;51.482;7.408;2023-07-20T08:03:08;3.13;;;1.97;;
4355;SDS011;64374;51.482;7.408;2023-07-20T08:05:38;2.00;;;1.90;;
4355;SDS011;64374;51.482;7.408;2023-07-20T08:08:06;1.80;;;1.50;;
4355;SDS011;64374;51.482;7.408;2023-07-20T08:10:35;2.33;;;1.67;;
4355;SDS011;64374;51.482;7.408;2023-07-20T08:13:04;2.43;;;2.00;;
4355;SDS011;64374;51.482;7.408;2023-07-20T08:15:34;2.37;;;2.17;;
4355;SDS011;64374;51.482;7.408;2023-07-20T08:18:03;2.50;;;2.30;;
4355;SDS011;64374;51.482;7.408;2023-07-20T08:20:32;1.80;;;1.70;;
4355;SDS011;64374;51.482;7.408;2023-07-20T08:23:04;4.67;;;1.70;;
4355;SDS011;64374;51.482;7.408;2023-07-20T08:25:32;2.23;;;1.60;;
4355;SDS011;64374;51.482;7.408;2023-07-20T08:28:00;1.30;;;1.20;;
4355;SDS011;64374;51.482;7.408;2023-07-20T08:30:38;2.33;;;1.90;;
4355;SDS011;64374;51.482;7.408;2023-07-20T08:33:08;3.00;;;1.70;;
4355;SDS011;64374;51.482;7.408;2023-07-20T08:35:37;1.53;;;1.43;;
4355;SDS011;64374;51.482;7.408;2023-07-20T08:38:07;2.13;;;1.90;;
4355;SDS011;64374;51.482;7.408;2023-07-20T08:40:38;2.73;;;2.23;;
4355;SDS011;64374;51.482;7.408;2023-07-20T08:43:08;3.53;;;1.80;;
4355;SDS011;64374;51.482;7.408;2023-07-20T08:45:38;2.47;;;1.60;;
4355;SDS011;64374;51.482;7.408;2023-07-20T08:48:07;4.47;;;1.80;;
4355;SDS011;64374;51.482;7.408;2023-07-20T08:50:36;2.53;;;1.47;;
4355;SDS011;64374;51.482;7.408;2023-07-20T08:53:07;2.90;;;1.30;;
4355;SDS011;64374;51.482;7.408;2023-07-20T08:55:37;1.57;;;1.30;;
4355;SDS011;64374;51.482;7.408;2023-07-20T08:58:11;1.00;;;1.00;;
4355;SDS011;64374;51.482;7.408;2023-07-20T09:00:42;1.20;;;1.10;;
4355;SDS011;64374;51.482;7.408;2023-07-20T09:03:14;2.10;;;0.90;;
4355;SDS011;64374;51.482;7.408;2023-07-20T09:05:42;1.83;;;1.17;;
4355;SDS011;64374;51.482;7.408;2023-07-20T09:08:14;1.60;;;0.83;;
4355;SDS011;64374;51.482;7.408;2023-07-20T09:10:43;1.33;;;1.23;;
4355;SDS011;64374;51.482;7.408;2023-07-20T09:13:13;4.30;;;1.27;;
4355;SDS011;64374;51.482;7.408;2023-07-20T09:15:45;1.97;;;1.20;;
4355;SDS011;64374;51.482;7.408;2023-07-20T09:18:24;1.10;;;1.00;;
4355;SDS011;64374;51.482;7.408;2023-07-20T09:20:52;1.00;;;0.90;;
4355;SDS011;64374;51.482;7.408;2023-07-20T09:23:30;1.87;;;0.90;;
4355;SDS011;64374;51.482;7.408;2023-07-20T09:26:01;2.20;;;1.20;;
4355;SDS011;64374;51.482;7.408;2023-07-20T09:28:42;2.53;;;1.00;;
4355;SDS011;64374;51.482;7.408;2023-07-20T09:31:15;2.87;;;1.13;;
4355;SDS011;64374;51.482;7.408;2023-07-20T09:33:46;0.87;;;0.87;;
4355;SDS011;64374;51.482;7.408;2023-07-20T09:36:19;1.00;;;0.90;;
4355;SDS011;64374;51.482;7.408;2023-07-20T09:39:09;1.13;;;1.03;;
4355;SDS011;64374;51.482;7.408;2023-07-20T09:41:41;2.30;;;1.03;;
4355;SDS011;64374;51.482;7.408;2023-07-20T09:44:13;1.10;;;1.00;;
4355;SDS011;64374;51.482;7.408;2023-07-20T09:46:46;0.90;;;0.90;;
4355;SDS011;64374;51.482;7.408;2023-07-20T09:49:18;1.47;;;1.10;;
4355;SDS011;64374;51.482;7.408;2023-07-20T09:51:49;0.90;;;0.90;;
4355;SDS011;64374;51.482;7.408;2023-07-20T09:54:18;2.00;;;1.13;;
4355;SDS011;64374;51.482;7.408;2023-07-20T09:56:50;1.20;;;1.10;;
4355;SDS011;64374;51.482;7.408;2023-07-20T09:59:19;1.70;;;1.17;;
4355;SDS011;64374;51.482;7.408;2023-07-20T10:01:48;1.87;;;1.13;;
4355;SDS011;64374;51.482;7.408;2023-07-20T10:04:21;1.10;;;1.00;;
4355;SDS011;64374;51.482;7.408;2023-07-20T10:06:51;1.07;;;0.90;;
4355;SDS011;64374;51.482;7.408;2023-07-20T10:09:23;1.33;;;0.93;;
4355;SDS011;64374;51.482;7.408;2023-07-20T10:11:53;1.30;;;0.90;;
4355;SDS011;64374;51.482;7.408;2023-07-20T10:14:47;1.10;;;1.10;;
4355;SDS011;64374;51.482;7.408;2023-07-20T10:17:25;3.33;;;1.00;;
4355;SDS011;64374;51.482;7.408;2023-07-20T10:19:56;1.00;;;0.90;;
4355;SDS011;64374;51.482;7.408;2023-07-20T10:22:31;2.30;;;0.83;;
4355;SDS011;64374;51.482;7.408;2023-07-20T10:25:09;2.30;;;1.13;;
4355;SDS011;64374;51.482;7.408;2023-07-20T10:27:38;1.73;;;0.90;;
4355;SDS011;64374;51.482;7.408;2023-07-20T10:30:08;1.20;;;1.10;;
4355;SDS011;64374;51.482;7.408;2023-07-20T10:32:37;2.53;;;1.40;;
4355;SDS011;64374;51.482;7.408;2023-07-20T10:35:11;1.47;;;1.27;;
4355;SDS011;64374;51.482;7.408;2023-07-20T10:37:48;11.30;;;2.80;;
4355;SDS011;64374;51.482;7.408;2023-07-20T10:40:31;3.90;;;2.50;;
4355;SDS011;64374;51.482;7.408;2023-07-20T10:43:01;3.30;;;1.80;;
4355;SDS011;64374;51.482;7.408;2023-07-20T10:45:41;1.80;;;1.70;;
4355;SDS011;64374;51.482;7.408;2023-07-20T10:48:20;4.60;;;2.60;;
4355;SDS011;64374;51.482;7.408;2023-07-20T10:51:09;7.40;;;2.93;;
4355;SDS011;64374;51.482;7.408;2023-07-20T10:53:39;4.63;;;2.70;;
4355;SDS011;64374;51.482;7.408;2023-07-20T10:56:11;2.70;;;1.50;;
4355;SDS011;64374;51.482;7.408;2023-07-20T10:58:40;4.63;;;1.33;;
4355;SDS011;64374;51.482;7.408;2023-07-20T11:01:11;1.40;;;1.30;;
4355;SDS011;64374;51.482;7.408;2023-07-20T11:03:48;3.10;;;1.60;;
4355;SDS011;64374;51.482;7.408;2023-07-20T11:06:29;1.30;;;1.20;;
4355;SDS011;64374;51.482;7.408;2023-07-20T11:09:03;1.53;;;1.23;;
4355;SDS011;64374;51.482;7.408;2023-07-20T11:11:37;1.50;;;1.30;;
4355;SDS011;64374;51.482;7.408;2023-07-20T11:14:07;1.60;;;1.20;;
4355;SDS011;64374;51.482;7.408;2023-07-20T11:16:40;1.07;;;1.03;;
4355;SDS011;64374;51.482;7.408;2023-07-20T11:19:17;2.70;;;1.37;;
4355;SDS011;64374;51.482;7.408;2023-07-20T11:21:52;1.60;;;1.50;;
4355;SDS011;64374;51.482;7.408;2023-07-20T11:24:28;17.40;;;3.20;;
4355;SDS011;64374;51.482;7.408;2023-07-20T11:26:58;5.53;;;2.83;;
4355;SDS011;64374;51.482;7.408;2023-07-20T11:29:29;4.90;;;1.67;;
4355;SDS011;64374;51.482;7.408;2023-07-20T11:32:00;4.30;;;1.90;;
4355;SDS011;64374;51.482;7.408;2023-07-20T11:34:31;2.30;;;1.90;;
4355;SDS011;64374;51.482;7.408;2023-07-20T11:37:01;3.93;;;1.90;;
4355;SDS011;64374;51.482;7.408;2023-07-20T11:39:33;1.63;;;1.53;;
4355;SDS011;64374;51.482;7.408;2023-07-20T11:42:04;1.50;;;1.40;;
4355;SDS011;64374;51.482;7.408;2023-07-20T11:44:33;2.10;;;1.73;;
4355;SDS011;64374;51.482;7.408;2023-07-20T11:47:03;2.83;;;1.60;;
4355;SDS011;64374;51.482;7.408;2023-07-20T11:49:34;1.87;;;1.77;;
4355;SDS011;64374;51.482;7.408;2023-07-20T11:52:04;2.47;;;2.00;;
4355;SDS011;64374;51.482;7.408;2023-07-20T11:54:34;1.50;;;1.40;;
4355;SDS011;64374;51.482;7.408;2023-07-20T11:57:05;1.83;;;1.73;;
4355;SDS011;64374;51.482;7.408;2023-07-20T11:59:34;1.70;;;1.60;;
4355;SDS011;64374;51.482;7.408;2023-07-20T12:02:02;1.73;;;1.50;;
4355;SDS011;64374;51.482;7.408;2023-07-20T12:04:31;1.60;;;1.50;;
4355;SDS011;64374;51.482;7.408;2023-07-20T12:07:02;2.80;;;1.43;;
4355;SDS011;64374;51.482;7.408;2023-07-20T12:09:31;1.20;;;1.13;;
4355;SDS011;64374;51.482;7.408;2023-07-20T12:12:18;1.67;;;1.40;;
4355;SDS011;64374;51.482;7.408;2023-07-20T12:14:47;2.00;;;1.80;;
4355;SDS011;64374;51.482;7.408;2023-07-20T12:17:16;1.77;;;1.30;;
4355;SDS011;64374;51.482;7.408;2023-07-20T12:19:45;3.67;;;1.70;;
4355;SDS011;64374;51.482;7.408;2023-07-20T12:22:13;1.50;;;1.40;;
4355;SDS011;64374;51.482;7.408;2023-07-20T12:24:41;1.10;;;1.00;;
4355;SDS011;64374;51.482;7.408;2023-07-20T12:27:12;2.70;;;2.50;;
4355;SDS011;64374;51.482;7.408;2023-07-20T12:29:48;2.23;;;2.03;;
4355;SDS011;64374;51.482;7.408;2023-07-20T12:32:16;2.23;;;2.03;;
4355;SDS011;64374;51.482;7.408;2023-07-20T12:34:45;1.37;;;1.27;;
4355;SDS011;64374;51.482;7.408;2023-07-20T12:37:17;0.90;;;0.90;;
4355;SDS011;64374;51.482;7.408;2023-07-20T12:39:46;2.90;;;1.03;;
4355;SDS011;64374;51.482;7.408;2023-07-20T12:42:16;1.07;;;0.97;;
4355;SDS011;64374;51.482;7.408;2023-07-20T12:44:45;1.20;;;1.10;;
4355;SDS011;64374;51.482;7.408;2023-07-20T12:47:14;1.43;;;1.33;;
4355;SDS011;64374;51.482;7.408;2023-07-20T12:49:43;1.60;;;1.20;;
4355;SDS011;64374;51.482;7.408;2023-07-20T12:52:12;1.33;;;0.90;;
4355;SDS011;64374;51.482;7.408;2023-07-20T12:54:41;1.20;;;1.10;;
4355;SDS011;64374;51.482;7.408;2023-07-20T12:57:09;1.07;;;0.97;;
4355;SDS011;64374;51.482;7.408;2023-07-20T12:59:39;0.90;;;0.90;;
4355;SDS011;64374;51.482;7.408;2023-07-20T13:02:09;1.03;;;0.93;;
4355;SDS011;64374;51.482;7.408;2023-07-20T13:04:37;2.63;;;1.30;;
4355;SDS011;64374;51.482;7.408;2023-07-20T13:07:09;2.27;;;1.30;;
4355;SDS011;64374;51.482;7.408;2023-07-20T13:09:41;2.80;;;1.37;;
4355;SDS011;64374;51.482;7.408;2023-07-20T13:12:10;2.73;;;1.57;;
4355;SDS011;64374;51.482;7.408;2023-07-20T13:14:39;1.67;;;1.10;;
4355;SDS011;64374;51.482;7.408;2023-07-20T13:17:07;1.20;;;1.10;;
4355;SDS011;64374;51.482;7.408;2023-07-20T13:19:37;2.00;;;1.50;;
4355;SDS011;64374;51.482;7.408;2023-07-20T13:22:07;1.83;;;0.90;;
4355;SDS011;64374;51.482;7.408;2023-07-20T13:24:36;7.90;;;1.40;;
4355;SDS011;64374;51.482;7.408;2023-07-20T13:27:06;1.13;;;1.03;;
4355;SDS011;64374;51.482;7.408;2023-07-20T13:29:35;5.33;;;1.20;;
4355;SDS011;64374;51.482;7.408;2023-07-20T13:32:04;1.27;;;1.17;;
4355;SDS011;64374;51.482;7.408;2023-07-20T13:34:37;4.30;;;1.20;;
4355;SDS011;64374;51.482;7.408;2023-07-20T13:37:07;1.30;;;1.20;;
4355;SDS011;64374;51.482;7.408;2023-07-20T13:39:39;1.20;;;1.10;;
4355;SDS011;64374;51.482;7.408;2023-07-20T13:42:08;1.40;;;1.30;;
4355;SDS011;64374;51.482;7.408;2023-07-20T13:44:38;2.70;;;1.93;;
4355;SDS011;64374;51.482;7.408;2023-07-20T13:47:07;1.63;;;1.20;;
4355;SDS011;64374;51.482;7.408;2023-07-20T13:49:39;2.37;;;1.20;;
4355;SDS011;64374;51.482;7.408;2023-07-20T13:52:13;1.53;;;1.43;;
4355;SDS011;64374;51.482;7.408;2023-07-20T13:54:52;0.90;;;0.90;;
4355;SDS011;64374;51.482;7.408;2023-07-20T13:57:21;1.77;;;1.50;;
4355;SDS011;64374;51.482;7.408;2023-07-20T13:59:49;1.30;;;1.20;;
4355;SDS011;64374;51.482;7.408;2023-07-20T14:02:17;1.57;;;1.10;;
4355;SDS011;64374;51.482;7.408;2023-07-20T14:04:50;1.30;;;1.20;;
4355;SDS011;64374;51.482;7.408;2023-07-20T14:07:25;2.30;;;1.13;;
4355;SDS011;64374;51.482;7.408;2023-07-20T14:09:53;1.83;;;1.60;;
4355;SDS011;64374;51.482;7.408;2023-07-20T14:12:24;1.37;;;1.20;;
4355;SDS011;64374;51.482;7.408;2023-07-20T14:14:53;1.90;;;0.90;;
4355;SDS011;64374;51.482;7.408;2023-07-20T14:17:23;2.03;;;1.30;;
4355;SDS011;64374;51.482;7.408;2023-07-20T14:19:54;2.23;;;1.13;;
4355;SDS011;64374;51.482;7.408;2023-07-20T14:22:23;3.00;;;1.30;;
4355;SDS011;64374;51.482;7.408;2023-07-20T14:24:53;2.40;;;1.30;;
4355;SDS011;64374;51.482;7.408;2023-07-20T14:27:25;1.23;;;1.00;;
4355;SDS011;64374;51.482;7.408;2023-07-20T14:29:53;2.10;;;1.90;;
4355;SDS011;64374;51.482;7.408;2023-07-20T14:32:23;1.43;;;1.33;;
4355;SDS011;64374;51.482;7.408;2023-07-20T14:34:55;1.50;;;1.20;;
4355;SDS011;64374;51.482;7.408;2023-07-20T14:37:23;1.77;;;1.27;;
4355;SDS011;64374;51.482;7.408;2023-07-20T14:39:54;4.30;;;1.40;;
4355;SDS011;64374;51.482;7.408;2023-07-20T14:42:23;2.83;;;1.47;;
4355;SDS011;64374;51.482;7.408;2023-07-20T14:44:52;2.80;;;1.40;;
4355;SDS011;64374;51.482;7.408;2023-07-20T14:47:20;2.17;;;1.20;;
4355;SDS011;64374;51.482;7.408;2023-07-20T14:49:49;1.37;;;1.27;;
4355;SDS011;64374;51.482;7.408;2023-07-20T14:52:18;1.40;;;1.30;;
4355;SDS011;64374;51.482;7.408;2023-07-20T14:54:48;1.70;;;1.10;;
4355;SDS011;64374;51.482;7.408;2023-07-20T14:57:16;4.07;;;1.43;;
4355;SDS011;64374;51.482;7.408;2023-07-20T14:59:46;2.43;;;1.33;;
4355;SDS011;64374;51.482;7.408;2023-07-20T15:02:15;1.13;;;1.03;;
4355;SDS011;64374;51.482;7.408;2023-07-20T15:04:47;2.73;;;1.40;;
4355;SDS011;64374;51.482;7.408;2023-07-20T15:07:15;1.30;;;1.20;;
4355;SDS011;64374;51.482;7.408;2023-07-20T15:09:46;6.33;;;1.30;;
4355;SDS011;64374;51.482;7.408;2023-07-20T15:12:15;2.13;;;1.20;;
4355;SDS011;64374;51.482;7.408;2023-07-20T15:14:43;1.43;;;1.20;;
4355;SDS011;64374;51.482;7.408;2023-07-20T15:17:17;4.23;;;1.40;;
4355;SDS011;64374;51.482;7.408;2023-07-20T15:19:47;1.43;;;1.33;;
4355;SDS011;64374;51.482;7.408;2023-07-20T15:22:15;2.93;;;1.57;;